Tropical Cyclones
[Index]
Main Index Home Page Stock Weather Photos Extreme Storms Discussion Storm News and Storm Chasing Reports Tropical Cyclones / Hurricanes / Typhoons Weather Data and Links Wild Fires / Bushfires Weather Observation Techniques Weather Picture Catalogue Tornado Pictures and Reports Stock Video Footage and DVDs for sale
Season 2006-2007 Tropical Cyclone JACOB Track Map
Season 2006-2007 Summaries: [BoM-AU] [JTWC-AU] [JTWC-SIO] [JTWC-SPAC] [JTWC-SH]
<<- Previous TC | BoM 2006-2007 Season | Next TC ->>

click for intensity scale information  Lat/long Grid: Show Hide

 Date Labels: Show Hide

Bureau of Meteorology Tropical Cyclone Data

Name: JACOB
Number: 906 / 200607_12

02 Mar 2007 18:00 UTC to 12 Mar 2007 06:00 UTC

    date/time    lat    long    hPa   cat  kts
2007-03-02 18   13.8   118.9   1002         20          
2007-03-03 00   13.8   118.1   1000         25          
2007-03-03 06   13.8   117.7    999         25          
2007-03-03 12   13.8   117.3    998         25          
2007-03-03 18   14.1   116.7    998         25          
2007-03-04 00   14.5   116.3    998         25          
2007-03-04 06   14.4   116.1    998         25          
2007-03-04 12   14.6   116.1    998         25          
2007-03-04 18   14.7   115.5    994    1    35          
2007-03-05 00   14.6   114.8    994    1    35          
2007-03-05 06   14.5   114.2    994    1    35          
2007-03-05 12   14.3   113.4    995    1    35          
2007-03-05 18   14.2   112.3    993    1    35          
2007-03-06 00   14.2   111.0    993    1    35          
2007-03-06 06   13.6   110.1    993    1    35          
2007-03-06 12   13.4   109.6    992    1    35          
2007-03-06 18   13.1   108.9    990    1    35          
2007-03-07 00   12.6   108.3    988    1    40          
2007-03-07 06   12.6   107.8    984    2    45          
2007-03-07 12   12.7   107.1    981    2    50          
2007-03-07 18   12.9   106.3    978    2    55          
2007-03-08 00   12.5   106.0    977    2    55          
2007-03-08 06   12.6   105.9    982    2    50          
2007-03-08 12   13.0   106.3    983    2    50          
2007-03-08 18   13.5   107.0    984    2    50          
2007-03-09 00   14.0   107.7    986    1    50          
2007-03-09 06   14.5   108.3    982    2    55          
2007-03-09 12   15.0   109.2    976    2    65          
2007-03-09 18   15.6   109.8    971    2    70          
2007-03-10 00   16.0   110.6    975    2    65          
2007-03-10 06   17.1   111.4    978    2    60          
2007-03-10 12   17.9   112.4    981    2    55          
2007-03-10 18   18.4   113.1    982    2    50          
2007-03-11 00   19.0   113.9    984    2    50          
2007-03-11 06   19.3   114.5    989    1    40          
2007-03-11 12   19.5   115.6    993    1    35          
2007-03-11 18   19.7   117.0    995    1    35          
2007-03-12 00   20.0   118.3    995    1    35          
2007-03-12 03   20.1   118.9    996         35          
2007-03-12 06   20.4   119.7    998         30          
Winds are 10-min average.

Tropical cyclone tracks developed by Michael Bath using data from the Bureau of Meteorology and Google Maps.


[Australian Severe Weather index] [Copyright Notice] [Email Contacts] [Search This Site] [Privacy Policy]
Document: tropical_cyclone_jacob.htm Updated: 29 June 2017